»·PEaware :: AAL405 KSFO-KBUR

AAL405 :: KSFO-KBUR

FLIGHT INFORMATION

Flight Status: Arrived
Operator:
American Airlines
More flights by this operator :: More flights under this callsign
Pilot: Anonymous 39875 (39875)
Aircraft: EMBRAER EMB-170/175
(E170)
More flights by this aircraft type
Origin: KSFO San Francisco Intl
United States
Destination: KBUR Bob Hope-Burbank
United States
More flights between these airports :: More routes between these airports
Route: SSTIK5 KTINA CISKO RDHOT ROKKR2
File this flight plan on PilotEdge
Remarks: RMK / SIMBRIEF
Altitude:
(Current/Filed)
31,000ft
Speed:
(Current/Filed)
409kts
Departed: 26-Jul-22 09:17 AM
Arrived: 26-Jul-22 10:08 AM
Distance/Time
Traveled:
284nm/0:51
Distance/Time
To Go:
Arrived

Flight Plot

Page will automatically refresh every two minutes.

Flight plan parsing failed; only flown route is shown


Map Options




Map Legend


Flown Route
Filed Route
Departure Airport
Arrival Airport
Navaid (VOR, NDB)
Fix

Horizontal Profiles

Position Reports

Time Latitude Longitude Heading Altitude Ground
Speed
26-Jul-22 08:56 37.614605 -122.383188 28 23ft 0kts
26-Jul-22 08:57 37.614605 -122.383188 28 23ft 0kts
26-Jul-22 08:58 37.614605 -122.383188 28 23ft 0kts
26-Jul-22 08:59 37.614605 -122.383188 28 23ft 0kts
26-Jul-22 09:00 37.614605 -122.383188 28 23ft 0kts
26-Jul-22 09:01 37.614605 -122.383188 28 23ft 0kts
26-Jul-22 09:02 37.614605 -122.383188 28 23ft 0kts
26-Jul-22 09:03 37.614605 -122.383188 28 23ft 0kts
26-Jul-22 09:04 37.614605 -122.383188 28 23ft 0kts
26-Jul-22 09:05 37.614605 -122.383188 28 23ft 0kts
26-Jul-22 09:06 37.614605 -122.383188 28 23ft 0kts
26-Jul-22 09:07 37.614239 -122.383441 28 23ft 1kts
26-Jul-22 09:08 37.613773 -122.383000 297 23ft 0kts
26-Jul-22 09:09 37.613772 -122.382999 297 23ft 0kts
26-Jul-22 09:11 37.613772 -122.382999 297 23ft 0kts
26-Jul-22 09:12 37.613772 -122.382999 297 23ft 0kts
26-Jul-22 09:13 37.613775 -122.383020 286 23ft 3kts
26-Jul-22 09:14 37.610849 -122.383478 207 23ft 16kts
26-Jul-22 09:15 37.609365 -122.381808 9 23ft 19kts
26-Jul-22 09:16 37.646027 -122.357846 26 1907ft 197kts
26-Jul-22 09:17 37.689259 -122.382537 277 4899ft 219kts
26-Jul-22 09:18 37.645918 -122.425013 178 7937ft 235kts
26-Jul-22 09:19 37.574153 -122.429526 191 11011ft 296kts
26-Jul-22 09:20 37.488901 -122.445328 158 14042ft 328kts
26-Jul-22 09:21 37.412257 -122.378388 138 17062ft 346kts
26-Jul-22 09:22 37.339923 -122.293772 137 20060ft 366kts
26-Jul-22 09:23 37.259095 -122.196783 136 23104ft 449kts
26-Jul-22 09:25 37.164079 -122.082873 137 26120ft 491kts
26-Jul-22 09:26 37.062687 -121.961729 137 29128ft 516kts
26-Jul-22 09:27 36.957277 -121.836300 138 31063ft 508kts
26-Jul-22 09:28 36.858158 -121.718685 138 31067ft 483kts
26-Jul-22 09:29 36.761045 -121.604078 138 31064ft 476kts
26-Jul-22 09:30 36.664884 -121.491078 138 31060ft 474kts
26-Jul-22 09:31 36.569074 -121.378873 138 31058ft 473kts
26-Jul-22 09:32 36.473234 -121.266995 138 31050ft 473kts
26-Jul-22 09:33 36.376559 -121.155881 140 31044ft 472kts
26-Jul-22 09:34 36.276888 -121.051701 142 31037ft 468kts
26-Jul-22 09:35 36.176140 -120.949316 142 31031ft 467kts
26-Jul-22 09:36 36.075895 -120.847658 142 31029ft 466kts
26-Jul-22 09:37 35.975720 -120.746107 142 31030ft 466kts
26-Jul-22 09:38 35.875717 -120.644898 142 31034ft 466kts
26-Jul-22 09:39 35.775172 -120.543414 142 30221ft 467kts
26-Jul-22 09:40 35.675570 -120.443175 142 29076ft 459kts
26-Jul-22 09:41 35.577199 -120.344091 142 28074ft 454kts
26-Jul-22 09:42 35.481557 -120.244745 141 27075ft 448kts
26-Jul-22 09:43 35.387332 -120.146452 141 26074ft 442kts
26-Jul-22 09:44 35.294345 -120.049832 141 25075ft 436kts
26-Jul-22 09:45 35.202289 -119.954607 141 24169ft 429kts
26-Jul-22 09:46 35.111626 -119.861120 141 24043ft 425kts
26-Jul-22 09:47 35.023188 -119.770224 141 22999ft 406kts
26-Jul-22 09:48 34.938155 -119.683084 141 21992ft 392kts
26-Jul-22 09:49 34.857856 -119.595627 134 20989ft 386kts
26-Jul-22 09:49 34.801403 -119.511668 128 19558ft 377kts
26-Jul-22 09:51 34.728386 -119.398032 129 17457ft 356kts
26-Jul-22 09:52 34.667475 -119.305602 129 15653ft 343kts
26-Jul-22 09:53 34.614888 -119.213891 121 13859ft 321kts
26-Jul-22 09:54 34.571456 -119.123076 121 12053ft 301kts
26-Jul-22 09:54 34.531764 -119.055363 137 10551ft 293kts
26-Jul-22 09:55 34.466809 -118.997334 145 9064ft 285kts
26-Jul-22 09:57 34.393451 -118.928025 140 8362ft 288kts
26-Jul-22 09:58 34.333560 -118.864479 137 7361ft 284kts
26-Jul-22 09:58 34.285368 -118.811352 137 6970ft 279kts
26-Jul-22 09:59 34.243188 -118.739203 114 5994ft 252kts
26-Jul-22 10:00 34.217217 -118.671311 119 4289ft 198kts
26-Jul-22 10:01 34.199332 -118.615469 99 3683ft 162kts
26-Jul-22 10:03 34.200017 -118.556420 86 3693ft 146kts
26-Jul-22 10:03 34.200257 -118.515116 91 3257ft 147kts
26-Jul-22 10:04 34.199203 -118.466530 90 2279ft 142kts
26-Jul-22 10:05 34.198566 -118.419066 88 1579ft 140kts
26-Jul-22 10:06 34.198062 -118.373585 91 831ft 130kts
26-Jul-22 10:07 34.198645 -118.355153 40 731ft 18kts
26-Jul-22 10:08 34.198714 -118.350894 137 731ft 8kts
26-Jul-22 10:09 34.196819 -118.350591 180 731ft 1kts
26-Jul-22 10:10 34.196775 -118.350591 180 731ft 0kts
26-Jul-22 10:11 34.196775 -118.350591 180 731ft 0kts

Navigation Log

Ident Type
Flight plan parsing failed, navigation log unavailable